AUA27 EHAM-EDDW
Flight info
| Callsign | AUA27 |
|---|---|
| Flight time | 0h 38m |
| Altitude | 23000 |
| Route | ANDIK4E ANDIK M105 REVLA T948 GIBMA GIBMA2P |
| Aircraft | A20N/M-SDE2E3FGHIRWXY/LB1 |
Departure
| Time | 2026-04-17 08:15 |
|---|---|
| Airport | Amsterdam Airport Schiphol (EHAM) |
Arrival
| Time | 2026-04-17 08:53 |
|---|---|
| Airport | Bremen Airport (EDDW) |
| Time | Latitude | Longitude | Altitude | Speed | Heading |
|---|---|---|---|---|---|
| 2026-04-17 07:58 | 52.31354 | 4.75597 | -2 ft | 0 kts | 87° |
| 2026-04-17 08:07 | 52.31354 | 4.75594 | -1 ft | 3 kts | 87° |
| 2026-04-17 08:07 | 52.31354 | 4.75561 | -1 ft | 3 kts | 88° |
| 2026-04-17 08:07 | 52.31353 | 4.75527 | -1 ft | 3 kts | 88° |
| 2026-04-17 08:07 | 52.31352 | 4.75499 | -1 ft | 2 kts | 88° |
| 2026-04-17 08:08 | 52.31350 | 4.75477 | -1 ft | 2 kts | 67° |
| 2026-04-17 08:08 | 52.31343 | 4.75460 | -1 ft | 2 kts | 33° |
| 2026-04-17 08:08 | 52.31332 | 4.75451 | -1 ft | 2 kts | 9° |
| 2026-04-17 08:08 | 52.31327 | 4.75450 | -2 ft | 0 kts | 358° |
| 2026-04-17 08:10 | 52.31353 | 4.75448 | -2 ft | 11 kts | 358° |
| 2026-04-17 08:10 | 52.31427 | 4.75507 | -1 ft | 15 kts | 78° |
| 2026-04-17 08:10 | 52.31435 | 4.75687 | -1 ft | 17 kts | 86° |
| 2026-04-17 08:10 | 52.31443 | 4.75894 | -1 ft | 19 kts | 86° |
| 2026-04-17 08:11 | 52.31451 | 4.76124 | -1 ft | 21 kts | 87° |
| 2026-04-17 08:11 | 52.31461 | 4.76373 | -1 ft | 23 kts | 86° |
| 2026-04-17 08:11 | 52.31469 | 4.76641 | -1 ft | 24 kts | 87° |
| 2026-04-17 08:11 | 52.31478 | 4.76893 | -1 ft | 19 kts | 85° |
| 2026-04-17 08:12 | 52.31485 | 4.77110 | -1 ft | 15 kts | 86° |
| 2026-04-17 08:12 | 52.31535 | 4.77204 | -2 ft | 13 kts | 22° |
| 2026-04-17 08:12 | 52.31577 | 4.77336 | -2 ft | 15 kts | 85° |
| 2026-04-17 08:12 | 52.31583 | 4.77520 | -1 ft | 17 kts | 87° |
| 2026-04-17 08:13 | 52.31589 | 4.77705 | -1 ft | 6 kts | 86° |
| 2026-04-17 08:13 | 52.31590 | 4.77720 | -1 ft | 3 kts | 86° |
| 2026-04-17 08:13 | 52.31592 | 4.77773 | -1 ft | 8 kts | 86° |
| 2026-04-17 08:14 | 52.31545 | 4.77962 | 1 ft | 11 kts | 183° |
| 2026-04-17 08:14 | 52.31306 | 4.77938 | -1 ft | 69 kts | 182° |
| 2026-04-17 08:14 | 52.30608 | 4.77875 | -1 ft | 128 kts | 183° |
| 2026-04-17 08:14 | 52.29591 | 4.77778 | 241 ft | 152 kts | 183° |
| 2026-04-17 08:15 | 52.28544 | 4.77679 | 906 ft | 152 kts | 184° |
| 2026-04-17 08:15 | 52.27484 | 4.77761 | 1547 ft | 155 kts | 167° |
| 2026-04-17 08:15 | 52.26489 | 4.78577 | 2060 ft | 172 kts | 142° |
| 2026-04-17 08:15 | 52.25763 | 4.80264 | 2445 ft | 196 kts | 111° |
| 2026-04-17 08:16 | 52.25587 | 4.82600 | 2857 ft | 219 kts | 93° |
| 2026-04-17 08:16 | 52.25547 | 4.85201 | 3366 ft | 238 kts | 93° |
| 2026-04-17 08:16 | 52.25505 | 4.87921 | 4076 ft | 248 kts | 93° |
| 2026-04-17 08:16 | 52.25459 | 4.90752 | 4926 ft | 251 kts | 93° |
| 2026-04-17 08:17 | 52.25403 | 4.93694 | 5510 ft | 269 kts | 93° |
| 2026-04-17 08:17 | 52.25494 | 4.96776 | 6331 ft | 276 kts | 76° |
| 2026-04-17 08:17 | 52.26366 | 4.99568 | 7208 ft | 281 kts | 49° |
| 2026-04-17 08:17 | 52.27812 | 5.01778 | 8005 ft | 288 kts | 39° |
| 2026-04-17 08:18 | 52.29390 | 5.03857 | 8843 ft | 294 kts | 37° |
| 2026-04-17 08:18 | 52.30876 | 5.06192 | 9673 ft | 301 kts | 54° |
| 2026-04-17 08:18 | 52.32065 | 5.09000 | 10452 ft | 308 kts | 56° |
| 2026-04-17 08:18 | 52.33298 | 5.12011 | 10825 ft | 331 kts | 56° |
| 2026-04-17 08:19 | 52.34611 | 5.15254 | 11105 ft | 353 kts | 57° |
| 2026-04-17 08:19 | 52.35985 | 5.18656 | 11778 ft | 361 kts | 57° |
| 2026-04-17 08:19 | 52.37377 | 5.22104 | 12557 ft | 366 kts | 57° |
| 2026-04-17 08:19 | 52.38790 | 5.25608 | 13341 ft | 371 kts | 57° |
| 2026-04-17 08:20 | 52.40223 | 5.29162 | 14101 ft | 376 kts | 57° |
| 2026-04-17 08:20 | 52.41670 | 5.32757 | 14797 ft | 380 kts | 57° |
| 2026-04-17 08:20 | 52.43109 | 5.36342 | 15489 ft | 384 kts | 57° |
| 2026-04-17 08:20 | 52.44476 | 5.39750 | 16118 ft | 388 kts | 57° |
| 2026-04-17 08:21 | 52.45967 | 5.43469 | 16801 ft | 392 kts | 57° |
| 2026-04-17 08:21 | 52.47507 | 5.47315 | 17488 ft | 396 kts | 57° |
| 2026-04-17 08:21 | 52.48987 | 5.51021 | 18170 ft | 399 kts | 56° |
| 2026-04-17 08:21 | 52.50514 | 5.54852 | 18775 ft | 404 kts | 56° |
| 2026-04-17 08:22 | 52.52060 | 5.58732 | 19350 ft | 407 kts | 56° |
| 2026-04-17 08:22 | 52.53614 | 5.62639 | 19918 ft | 411 kts | 56° |
| 2026-04-17 08:22 | 52.55183 | 5.66589 | 20479 ft | 415 kts | 56° |
| 2026-04-17 08:22 | 52.56746 | 5.70531 | 21033 ft | 419 kts | 56° |
| 2026-04-17 08:23 | 52.58339 | 5.74556 | 21591 ft | 423 kts | 56° |
| 2026-04-17 08:23 | 52.59949 | 5.78629 | 22137 ft | 426 kts | 56° |
| 2026-04-17 08:23 | 52.61572 | 5.82740 | 22688 ft | 430 kts | 56° |
| 2026-04-17 08:23 | 52.63208 | 5.86894 | 22992 ft | 435 kts | 55° |
| 2026-04-17 08:24 | 52.64851 | 5.91070 | 23092 ft | 434 kts | 55° |
| 2026-04-17 08:24 | 52.66492 | 5.95247 | 23202 ft | 435 kts | 55° |
| 2026-04-17 08:24 | 52.68134 | 5.99434 | 23243 ft | 436 kts | 55° |
| 2026-04-17 08:24 | 52.69775 | 6.03627 | 23238 ft | 435 kts | 55° |
| 2026-04-17 08:25 | 52.71382 | 6.07742 | 23243 ft | 432 kts | 55° |
| 2026-04-17 08:25 | 52.73009 | 6.11912 | 23240 ft | 432 kts | 55° |
| 2026-04-17 08:25 | 52.74637 | 6.16090 | 23223 ft | 433 kts | 55° |
| 2026-04-17 08:25 | 52.76263 | 6.20269 | 23224 ft | 433 kts | 55° |
| 2026-04-17 08:26 | 52.77888 | 6.24451 | 23236 ft | 433 kts | 55° |
| 2026-04-17 08:26 | 52.79509 | 6.28632 | 23239 ft | 433 kts | 55° |
| 2026-04-17 08:26 | 52.81133 | 6.32827 | 23239 ft | 433 kts | 55° |
| 2026-04-17 08:26 | 52.82751 | 6.37017 | 23238 ft | 433 kts | 55° |
| 2026-04-17 08:27 | 52.84373 | 6.41220 | 23235 ft | 434 kts | 55° |
| 2026-04-17 08:27 | 52.85971 | 6.45369 | 23237 ft | 434 kts | 55° |
| 2026-04-17 08:27 | 52.87589 | 6.49576 | 23231 ft | 434 kts | 55° |
| 2026-04-17 08:27 | 52.89208 | 6.53793 | 23234 ft | 434 kts | 55° |
| 2026-04-17 08:28 | 52.90822 | 6.58006 | 23236 ft | 434 kts | 56° |
| 2026-04-17 08:28 | 52.92432 | 6.62216 | 23241 ft | 431 kts | 55° |
| 2026-04-17 08:28 | 52.94034 | 6.66409 | 23245 ft | 431 kts | 55° |
| 2026-04-17 08:28 | 52.95636 | 6.70609 | 23238 ft | 431 kts | 55° |
| 2026-04-17 08:29 | 52.97237 | 6.74816 | 23246 ft | 431 kts | 55° |
| 2026-04-17 08:29 | 52.98837 | 6.79025 | 23246 ft | 431 kts | 55° |
| 2026-04-17 08:29 | 53.00414 | 6.83181 | 23240 ft | 431 kts | 55° |
| 2026-04-17 08:29 | 53.02012 | 6.87401 | 23052 ft | 432 kts | 56° |
| 2026-04-17 08:30 | 53.03604 | 6.91609 | 22782 ft | 429 kts | 56° |
| 2026-04-17 08:30 | 53.05188 | 6.95807 | 22395 ft | 428 kts | 56° |
| 2026-04-17 08:30 | 53.06762 | 6.99981 | 21925 ft | 425 kts | 56° |
| 2026-04-17 08:30 | 53.08319 | 7.04119 | 21459 ft | 419 kts | 56° |
| 2026-04-17 08:31 | 53.09857 | 7.08212 | 21002 ft | 416 kts | 56° |
| 2026-04-17 08:31 | 53.11386 | 7.12285 | 20552 ft | 415 kts | 56° |
| 2026-04-17 08:31 | 53.12845 | 7.16337 | 20114 ft | 412 kts | 60° |
| 2026-04-17 08:31 | 53.14035 | 7.20714 | 19669 ft | 407 kts | 68° |
| 2026-04-17 08:32 | 53.14902 | 7.25105 | 19245 ft | 402 kts | 71° |
| 2026-04-17 08:32 | 53.15766 | 7.29540 | 18816 ft | 402 kts | 71° |
| 2026-04-17 08:32 | 53.16636 | 7.33953 | 18376 ft | 400 kts | 71° |
| 2026-04-17 08:32 | 53.17496 | 7.38326 | 17894 ft | 395 kts | 71° |
| 2026-04-17 08:33 | 53.18345 | 7.42663 | 17420 ft | 392 kts | 71° |
| 2026-04-17 08:33 | 53.19186 | 7.46977 | 16959 ft | 390 kts | 71° |
| 2026-04-17 08:33 | 53.20017 | 7.51258 | 16489 ft | 386 kts | 71° |
| 2026-04-17 08:33 | 53.20839 | 7.55500 | 16036 ft | 384 kts | 71° |
| 2026-04-17 08:34 | 53.21644 | 7.59669 | 15587 ft | 381 kts | 72° |
| 2026-04-17 08:34 | 53.22451 | 7.63854 | 15151 ft | 377 kts | 72° |
| 2026-04-17 08:34 | 53.23250 | 7.68006 | 14712 ft | 376 kts | 72° |
| 2026-04-17 08:34 | 53.24045 | 7.72144 | 14280 ft | 373 kts | 71° |
| 2026-04-17 08:35 | 53.24833 | 7.76249 | 13831 ft | 368 kts | 72° |
| 2026-04-17 08:35 | 53.25608 | 7.80300 | 13354 ft | 365 kts | 72° |
| 2026-04-17 08:35 | 53.26376 | 7.84320 | 12887 ft | 362 kts | 72° |
| 2026-04-17 08:35 | 53.27137 | 7.88317 | 12417 ft | 359 kts | 72° |
| 2026-04-17 08:36 | 53.27888 | 7.92267 | 11969 ft | 355 kts | 72° |
| 2026-04-17 08:36 | 53.28619 | 7.96125 | 11516 ft | 351 kts | 72° |
| 2026-04-17 08:36 | 53.29352 | 7.99998 | 11078 ft | 348 kts | 72° |
| 2026-04-17 08:36 | 53.30079 | 8.03846 | 10650 ft | 346 kts | 72° |
| 2026-04-17 08:37 | 53.30801 | 8.07671 | 10219 ft | 343 kts | 72° |
| 2026-04-17 08:37 | 53.31514 | 8.11462 | 9747 ft | 340 kts | 73° |
| 2026-04-17 08:37 | 53.32170 | 8.15230 | 9268 ft | 336 kts | 79° |
| 2026-04-17 08:37 | 53.32432 | 8.19079 | 8817 ft | 331 kts | 90° |
| 2026-04-17 08:38 | 53.32286 | 8.22886 | 8423 ft | 325 kts | 97° |
| 2026-04-17 08:38 | 53.32079 | 8.26577 | 8029 ft | 321 kts | 96° |
| 2026-04-17 08:38 | 53.31883 | 8.30270 | 7638 ft | 317 kts | 96° |
| 2026-04-17 08:38 | 53.31693 | 8.33915 | 7271 ft | 312 kts | 96° |
| 2026-04-17 08:39 | 53.31504 | 8.37505 | 6910 ft | 308 kts | 97° |
| 2026-04-17 08:39 | 53.31315 | 8.41052 | 6541 ft | 304 kts | 97° |
| 2026-04-17 08:39 | 53.31126 | 8.44555 | 6146 ft | 301 kts | 97° |
| 2026-04-17 08:39 | 53.30937 | 8.48018 | 5759 ft | 297 kts | 97° |
| 2026-04-17 08:40 | 53.30749 | 8.51433 | 5378 ft | 293 kts | 97° |
| 2026-04-17 08:40 | 53.30564 | 8.54793 | 5094 ft | 287 kts | 97° |
| 2026-04-17 08:40 | 53.30387 | 8.58017 | 4837 ft | 279 kts | 97° |
| 2026-04-17 08:40 | 53.30210 | 8.61216 | 4571 ft | 272 kts | 97° |
| 2026-04-17 08:41 | 53.29960 | 8.64307 | 4318 ft | 265 kts | 109° |
| 2026-04-17 08:41 | 53.29083 | 8.66925 | 4059 ft | 258 kts | 135° |
| 2026-04-17 08:41 | 53.27701 | 8.68849 | 3815 ft | 259 kts | 143° |
| 2026-04-17 08:41 | 53.26285 | 8.70679 | 3559 ft | 255 kts | 143° |
| 2026-04-17 08:42 | 53.24887 | 8.72486 | 3306 ft | 255 kts | 143° |
| 2026-04-17 08:42 | 53.23502 | 8.74277 | 3082 ft | 253 kts | 143° |
| 2026-04-17 08:42 | 53.22115 | 8.76021 | 3004 ft | 251 kts | 149° |
| 2026-04-17 08:42 | 53.20499 | 8.77110 | 2998 ft | 251 kts | 169° |
| 2026-04-17 08:43 | 53.18785 | 8.77324 | 2998 ft | 241 kts | 178° |
| 2026-04-17 08:43 | 53.17160 | 8.77409 | 2990 ft | 226 kts | 178° |
| 2026-04-17 08:43 | 53.15626 | 8.77493 | 2991 ft | 220 kts | 180° |
| 2026-04-17 08:43 | 53.14149 | 8.76860 | 2997 ft | 223 kts | 211° |
| 2026-04-17 08:44 | 53.13117 | 8.74980 | 2999 ft | 226 kts | 244° |
| 2026-04-17 08:44 | 53.12827 | 8.72453 | 3007 ft | 218 kts | 266° |
| 2026-04-17 08:44 | 53.12794 | 8.70046 | 2989 ft | 205 kts | 266° |
| 2026-04-17 08:44 | 53.12758 | 8.67703 | 3006 ft | 198 kts | 266° |
| 2026-04-17 08:45 | 53.12716 | 8.65452 | 2999 ft | 195 kts | 265° |
| 2026-04-17 08:45 | 53.12665 | 8.63181 | 2994 ft | 192 kts | 265° |
| 2026-04-17 08:45 | 53.12614 | 8.61016 | 2994 ft | 186 kts | 265° |
| 2026-04-17 08:45 | 53.12560 | 8.58872 | 2994 ft | 185 kts | 265° |
| 2026-04-17 08:46 | 53.12506 | 8.56719 | 2990 ft | 186 kts | 265° |
| 2026-04-17 08:46 | 53.12452 | 8.54611 | 2998 ft | 186 kts | 265° |
| 2026-04-17 08:46 | 53.12397 | 8.52467 | 2997 ft | 185 kts | 265° |
| 2026-04-17 08:46 | 53.12343 | 8.50339 | 2992 ft | 179 kts | 265° |
| 2026-04-17 08:47 | 53.12130 | 8.48374 | 2982 ft | 171 kts | 237° |
| 2026-04-17 08:47 | 53.11245 | 8.47133 | 2996 ft | 168 kts | 196° |
| 2026-04-17 08:47 | 53.10080 | 8.46888 | 2988 ft | 170 kts | 184° |
| 2026-04-17 08:47 | 53.08912 | 8.46767 | 2994 ft | 169 kts | 183° |
| 2026-04-17 08:48 | 53.07731 | 8.46647 | 2989 ft | 169 kts | 182° |
| 2026-04-17 08:48 | 53.06566 | 8.46767 | 2997 ft | 169 kts | 173° |
| 2026-04-17 08:48 | 53.05423 | 8.47056 | 2987 ft | 168 kts | 163° |
| 2026-04-17 08:48 | 53.04488 | 8.48199 | 2996 ft | 174 kts | 124° |
| 2026-04-17 08:49 | 53.04117 | 8.50106 | 2995 ft | 175 kts | 98° |
| 2026-04-17 08:49 | 53.04101 | 8.52155 | 2998 ft | 178 kts | 89° |
| 2026-04-17 08:49 | 53.04173 | 8.54204 | 2931 ft | 179 kts | 90° |
| 2026-04-17 08:49 | 53.04214 | 8.56265 | 2705 ft | 177 kts | 90° |
| 2026-04-17 08:50 | 53.04255 | 8.58284 | 2470 ft | 172 kts | 90° |
| 2026-04-17 08:50 | 53.04301 | 8.60208 | 2239 ft | 161 kts | 90° |
| 2026-04-17 08:50 | 53.04335 | 8.61974 | 2042 ft | 148 kts | 90° |
| 2026-04-17 08:50 | 53.04370 | 8.63607 | 1834 ft | 137 kts | 91° |
| 2026-04-17 08:51 | 53.04404 | 8.65200 | 1652 ft | 137 kts | 91° |
| 2026-04-17 08:51 | 53.04444 | 8.66782 | 1446 ft | 136 kts | 90° |
| 2026-04-17 08:51 | 53.04453 | 8.68317 | 1260 ft | 133 kts | 94° |
| 2026-04-17 08:51 | 53.04471 | 8.69852 | 1074 ft | 134 kts | 87° |
| 2026-04-17 08:52 | 53.04555 | 8.71366 | 854 ft | 130 kts | 90° |
| 2026-04-17 08:52 | 53.04569 | 8.72861 | 642 ft | 130 kts | 91° |
| 2026-04-17 08:52 | 53.04589 | 8.74367 | 415 ft | 131 kts | 89° |
| 2026-04-17 08:52 | 53.04629 | 8.75864 | 225 ft | 130 kts | 90° |
| 2026-04-17 08:53 | 53.04658 | 8.77344 | 52 ft | 128 kts | 90° |
| 2026-04-17 08:53 | 53.04684 | 8.78729 | 20 ft | 93 kts | 87° |
| 2026-04-17 08:53 | 53.04712 | 8.79240 | 19 ft | 23 kts | 56° |
| 2026-04-17 08:53 | 53.04791 | 8.79294 | 19 ft | 9 kts | 1° |
| 2026-04-17 08:54 | 53.04835 | 8.79287 | 21 ft | 6 kts | 341° |
| 2026-04-17 08:54 | 53.04862 | 8.79189 | 20 ft | 12 kts | 278° |
| 2026-04-17 08:54 | 53.04863 | 8.79113 | 18 ft | 10 kts | 264° |
| 2026-04-17 08:54 | 53.04858 | 8.78935 | 18 ft | 13 kts | 282° |
| 2026-04-17 08:55 | 53.04920 | 8.78820 | 18 ft | 14 kts | 319° |
| 2026-04-17 08:55 | 53.04988 | 8.78714 | 18 ft | 13 kts | 309° |
| 2026-04-17 08:55 | 53.05024 | 8.78592 | 20 ft | 11 kts | 309° |
| 2026-04-17 08:55 | 53.05066 | 8.78566 | 18 ft | 5 kts | 21° |
| 2026-04-17 08:56 | 53.05085 | 8.78594 | 19 ft | 7 kts | 46° |
| 2026-04-17 08:56 | 53.05106 | 8.78634 | 18 ft | 2 kts | 49° |
| 2026-04-17 08:56 | 53.05110 | 8.78642 | 18 ft | 0 kts | 49° |